sensor_id;sensor_type;location;lat;lon;timestamp;pressure;altitude;pressure_sealevel;temperature;humidity
9257;BME280;4665;51.368;6.782;2023-05-22T00:00:28;101089.56;;;17.51;100.00
9257;BME280;4665;51.368;6.782;2023-05-22T00:02:56;101092.66;;;17.48;100.00
9257;BME280;4665;51.368;6.782;2023-05-22T00:05:21;101091.19;;;17.45;100.00
9257;BME280;4665;51.368;6.782;2023-05-22T00:07:47;101074.31;;;17.37;100.00
9257;BME280;4665;51.368;6.782;2023-05-22T00:10:12;101075.31;;;17.36;100.00
9257;BME280;4665;51.368;6.782;2023-05-22T00:12:38;101088.22;;;17.40;100.00
9257;BME280;4665;51.368;6.782;2023-05-22T00:15:04;101085.81;;;17.45;100.00
9257;BME280;4665;51.368;6.782;2023-05-22T00:17:30;101088.28;;;17.47;100.00
9257;BME280;4665;51.368;6.782;2023-05-22T00:19:55;101089.56;;;17.51;100.00
9257;BME280;4665;51.368;6.782;2023-05-22T00:22:21;101091.63;;;17.49;100.00
9257;BME280;4665;51.368;6.782;2023-05-22T00:24:46;101092.66;;;17.48;100.00
9257;BME280;4665;51.368;6.782;2023-05-22T00:27:12;101089.75;;;17.50;100.00
9257;BME280;4665;51.368;6.782;2023-05-22T00:29:37;101096.19;;;17.49;100.00
9257;BME280;4665;51.368;6.782;2023-05-22T00:32:04;101082.00;;;17.40;100.00
9257;BME280;4665;51.368;6.782;2023-05-22T00:34:29;101093.22;;;17.43;100.00
9257;BME280;4665;51.368;6.782;2023-05-22T00:36:55;101093.59;;;17.40;100.00
9257;BME280;4665;51.368;6.782;2023-05-22T00:39:20;101101.50;;;17.42;100.00
9257;BME280;4665;51.368;6.782;2023-05-22T00:41:46;101086.94;;;17.36;100.00
9257;BME280;4665;51.368;6.782;2023-05-22T00:44:11;101095.09;;;17.43;100.00
9257;BME280;4665;51.368;6.782;2023-05-22T00:46:36;101093.34;;;17.35;100.00
9257;BME280;4665;51.368;6.782;2023-05-22T00:49:03;101090.53;;;17.43;100.00
9257;BME280;4665;51.368;6.782;2023-05-22T00:51:28;101093.66;;;17.47;100.00
9257;BME280;4665;51.368;6.782;2023-05-22T00:53:54;101101.38;;;17.50;100.00
9257;BME280;4665;51.368;6.782;2023-05-22T00:56:20;101095.34;;;17.48;100.00
9257;BME280;4665;51.368;6.782;2023-05-22T00:58:46;101104.50;;;17.54;100.00
9257;BME280;4665;51.368;6.782;2023-05-22T01:01:11;101100.97;;;17.53;100.00
9257;BME280;4665;51.368;6.782;2023-05-22T01:03:41;101108.41;;;17.51;100.00
9257;BME280;4665;51.368;6.782;2023-05-22T01:06:15;101105.09;;;17.49;100.00
9257;BME280;4665;51.368;6.782;2023-05-22T01:08:46;101102.59;;;17.48;100.00
9257;BME280;4665;51.368;6.782;2023-05-22T01:11:41;101107.34;;;17.45;100.00
9257;BME280;4665;51.368;6.782;2023-05-22T01:19:59;101103.75;;;17.38;100.00
9257;BME280;4665;51.368;6.782;2023-05-22T01:23:01;101095.22;;;17.35;100.00
9257;BME280;4665;51.368;6.782;2023-05-22T01:28:43;101089.56;;;17.30;100.00
9257;BME280;4665;51.368;6.782;2023-05-22T01:31:23;101088.91;;;17.28;100.00
9257;BME280;4665;51.368;6.782;2023-05-22T01:33:57;101095.31;;;17.27;100.00
9257;BME280;4665;51.368;6.782;2023-05-22T01:36:27;101094.50;;;17.26;100.00
9257;BME280;4665;51.368;6.782;2023-05-22T01:38:55;101083.94;;;17.24;100.00
9257;BME280;4665;51.368;6.782;2023-05-22T01:41:23;101085.97;;;17.22;100.00
9257;BME280;4665;51.368;6.782;2023-05-22T01:43:48;101088.66;;;17.22;100.00
9257;BME280;4665;51.368;6.782;2023-05-22T01:46:14;101078.25;;;17.19;100.00
9257;BME280;4665;51.368;6.782;2023-05-22T01:48:39;101075.56;;;17.19;100.00
9257;BME280;4665;51.368;6.782;2023-05-22T01:51:16;101070.13;;;17.13;100.00
9257;BME280;4665;51.368;6.782;2023-05-22T01:54:22;101074.94;;;17.17;100.00
9257;BME280;4665;51.368;6.782;2023-05-22T01:57:16;101069.94;;;17.14;100.00
9257;BME280;4665;51.368;6.782;2023-05-22T01:59:48;101065.75;;;17.12;100.00
9257;BME280;4665;51.368;6.782;2023-05-22T02:02:20;101072.53;;;17.08;100.00
9257;BME280;4665;51.368;6.782;2023-05-22T02:04:51;101075.25;;;17.08;100.00
9257;BME280;4665;51.368;6.782;2023-05-22T02:07:20;101071.47;;;17.02;100.00
9257;BME280;4665;51.368;6.782;2023-05-22T02:09:46;101063.56;;;17.00;100.00
9257;BME280;4665;51.368;6.782;2023-05-22T02:12:13;101068.31;;;16.98;100.00
9257;BME280;4665;51.368;6.782;2023-05-22T02:14:40;101069.34;;;16.97;100.00
9257;BME280;4665;51.368;6.782;2023-05-22T02:17:06;101067.59;;;16.90;100.00
9257;BME280;4665;51.368;6.782;2023-05-22T02:19:33;101074.00;;;16.89;100.00
9257;BME280;4665;51.368;6.782;2023-05-22T02:22:00;101072.69;;;16.85;100.00
9257;BME280;4665;51.368;6.782;2023-05-22T02:24:25;101063.53;;;16.79;100.00
9257;BME280;4665;51.368;6.782;2023-05-22T02:26:50;101075.38;;;16.85;100.00
9257;BME280;4665;51.368;6.782;2023-05-22T02:29:16;101064.91;;;16.75;100.00
9257;BME280;4665;51.368;6.782;2023-05-22T02:31:41;101057.66;;;16.75;100.00
9257;BME280;4665;51.368;6.782;2023-05-22T02:34:06;101062.69;;;16.78;100.00
9257;BME280;4665;51.368;6.782;2023-05-22T02:36:32;101053.47;;;16.73;100.00
9257;BME280;4665;51.368;6.782;2023-05-22T02:38:58;101056.47;;;16.78;100.00
9257;BME280;4665;51.368;6.782;2023-05-22T02:41:24;101056.19;;;16.73;100.00
9257;BME280;4665;51.368;6.782;2023-05-22T02:43:49;101061.38;;;16.74;100.00
9257;BME280;4665;51.368;6.782;2023-05-22T02:46:15;101041.38;;;16.62;100.00
9257;BME280;4665;51.368;6.782;2023-05-22T02:48:40;101065.28;;;16.72;100.00
9257;BME280;4665;51.368;6.782;2023-05-22T02:51:05;101077.34;;;16.61;100.00
9257;BME280;4665;51.368;6.782;2023-05-22T02:53:31;101062.53;;;16.50;100.00
9257;BME280;4665;51.368;6.782;2023-05-22T02:55:59;101056.13;;;16.51;100.00
9257;BME280;4665;51.368;6.782;2023-05-22T02:58:25;101048.44;;;16.48;100.00
9257;BME280;4665;51.368;6.782;2023-05-22T03:00:51;101067.63;;;16.60;100.00
9257;BME280;4665;51.368;6.782;2023-05-22T03:03:19;101052.88;;;16.56;100.00
9257;BME280;4665;51.368;6.782;2023-05-22T03:05:45;101052.88;;;16.56;100.00
9257;BME280;4665;51.368;6.782;2023-05-22T03:08:11;101064.44;;;16.56;100.00
9257;BME280;4665;51.368;6.782;2023-05-22T03:10:37;101063.63;;;16.56;100.00
9257;BME280;4665;51.368;6.782;2023-05-22T03:13:02;101073.28;;;16.50;100.00
9257;BME280;4665;51.368;6.782;2023-05-22T03:15:28;101061.13;;;16.54;100.00
9257;BME280;4665;51.368;6.782;2023-05-22T03:17:53;101067.34;;;16.55;100.00
9257;BME280;4665;51.368;6.782;2023-05-22T03:20:18;101074.75;;;16.53;100.00
9257;BME280;4665;51.368;6.782;2023-05-22T03:22:44;101080.50;;;16.50;100.00
9257;BME280;4665;51.368;6.782;2023-05-22T03:25:12;101077.53;;;16.45;100.00
9257;BME280;4665;51.368;6.782;2023-05-22T03:27:38;101079.22;;;16.46;100.00
9257;BME280;4665;51.368;6.782;2023-05-22T03:30:05;101059.66;;;16.37;100.00
9257;BME280;4665;51.368;6.782;2023-05-22T03:32:31;101077.91;;;16.41;100.00
9257;BME280;4665;51.368;6.782;2023-05-22T03:34:56;101067.06;;;16.35;100.00
9257;BME280;4665;51.368;6.782;2023-05-22T03:37:22;101072.63;;;16.33;100.00
9257;BME280;4665;51.368;6.782;2023-05-22T03:39:48;101070.31;;;16.30;100.00
9257;BME280;4665;51.368;6.782;2023-05-22T03:42:13;101069.66;;;16.28;100.00
9257;BME280;4665;51.368;6.782;2023-05-22T03:44:40;101066.16;;;16.28;100.00
9257;BME280;4665;51.368;6.782;2023-05-22T03:47:05;101060.94;;;16.26;100.00
9257;BME280;4665;51.368;6.782;2023-05-22T03:49:31;101070.31;;;16.30;100.00
9257;BME280;4665;51.368;6.782;2023-05-22T03:51:56;101069.66;;;16.28;100.00
9257;BME280;4665;51.368;6.782;2023-05-22T03:54:21;101073.38;;;16.27;100.00
9257;BME280;4665;51.368;6.782;2023-05-22T03:56:47;101069.38;;;16.23;100.00
9257;BME280;4665;51.368;6.782;2023-05-22T03:59:12;101073.06;;;16.22;100.00
9257;BME280;4665;51.368;6.782;2023-05-22T04:01:37;101071.41;;;16.21;100.00
9257;BME280;4665;51.368;6.782;2023-05-22T04:04:03;101063.09;;;16.16;100.00
9257;BME280;4665;51.368;6.782;2023-05-22T04:06:29;101066.44;;;16.18;100.00
9257;BME280;4665;51.368;6.782;2023-05-22T04:08:57;101070.50;;;16.14;100.00
9257;BME280;4665;51.368;6.782;2023-05-22T04:11:22;101052.97;;;16.03;100.00
9257;BME280;4665;51.368;6.782;2023-05-22T04:13:48;101058.06;;;15.98;100.00
9257;BME280;4665;51.368;6.782;2023-05-22T04:16:15;101079.28;;;16.08;100.00
9257;BME280;4665;51.368;6.782;2023-05-22T04:18:41;101053.41;;;15.92;100.00
9257;BME280;4665;51.368;6.782;2023-05-22T04:21:07;101063.59;;;15.96;100.00
9257;BME280;4665;51.368;6.782;2023-05-22T04:23:33;101075.66;;;16.01;100.00
9257;BME280;4665;51.368;6.782;2023-05-22T04:25:59;101081.50;;;16.04;100.00
9257;BME280;4665;51.368;6.782;2023-05-22T04:28:27;101066.22;;;15.90;100.00
9257;BME280;4665;51.368;6.782;2023-05-22T04:30:57;101081.84;;;16.01;100.00
9257;BME280;4665;51.368;6.782;2023-05-22T04:33:22;101082.72;;;16.02;100.00
9257;BME280;4665;51.368;6.782;2023-05-22T04:35:50;101095.50;;;15.99;100.00
9257;BME280;4665;51.368;6.782;2023-05-22T04:38:16;101085.41;;;16.02;100.00
9257;BME280;4665;51.368;6.782;2023-05-22T04:40:43;101083.06;;;15.98;100.00
9257;BME280;4665;51.368;6.782;2023-05-22T04:43:09;101094.47;;;16.01;100.00
9257;BME280;4665;51.368;6.782;2023-05-22T04:45:35;101095.84;;;15.96;100.00
9257;BME280;4665;51.368;6.782;2023-05-22T04:48:01;101097.53;;;15.97;100.00
9257;BME280;4665;51.368;6.782;2023-05-22T04:50:27;101104.88;;;16.04;100.00
9257;BME280;4665;51.368;6.782;2023-05-22T04:52:54;101095.13;;;16.03;100.00
9257;BME280;4665;51.368;6.782;2023-05-22T04:55:19;101077.25;;;15.95;100.00
9257;BME280;4665;51.368;6.782;2023-05-22T04:57:46;101086.88;;;16.04;100.00
9257;BME280;4665;51.368;6.782;2023-05-22T05:00:12;101076.78;;;16.06;100.00
9257;BME280;4665;51.368;6.782;2023-05-22T05:02:38;101094.50;;;16.15;100.00
9257;BME280;4665;51.368;6.782;2023-05-22T05:05:07;101094.31;;;16.17;100.00
9257;BME280;4665;51.368;6.782;2023-05-22T05:07:36;101100.34;;;16.19;100.00
9257;BME280;4665;51.368;6.782;2023-05-22T05:10:01;101102.03;;;16.20;100.00
9257;BME280;4665;51.368;6.782;2023-05-22T05:12:26;101099.94;;;16.22;100.00
9257;BME280;4665;51.368;6.782;2023-05-22T05:14:52;101099.94;;;16.22;100.00
9257;BME280;4665;51.368;6.782;2023-05-22T05:17:17;101109.53;;;16.25;100.00
9257;BME280;4665;51.368;6.782;2023-05-22T05:19:43;101094.22;;;16.25;100.00
9257;BME280;4665;51.368;6.782;2023-05-22T05:22:08;101104.59;;;16.28;100.00
9257;BME280;4665;51.368;6.782;2023-05-22T05:24:33;101100.59;;;16.24;100.00
9257;BME280;4665;51.368;6.782;2023-05-22T05:26:59;101094.22;;;16.25;100.00
9257;BME280;4665;51.368;6.782;2023-05-22T05:29:24;101097.19;;;16.30;100.00
9257;BME280;4665;51.368;6.782;2023-05-22T05:31:50;101103.78;;;16.28;100.00
9257;BME280;4665;51.368;6.782;2023-05-22T05:34:15;101098.84;;;16.31;100.00
9257;BME280;4665;51.368;6.782;2023-05-22T05:36:40;101101.38;;;16.33;100.00
9257;BME280;4665;51.368;6.782;2023-05-22T05:39:06;101102.19;;;16.33;100.00
9257;BME280;4665;51.368;6.782;2023-05-22T05:41:31;101112.94;;;16.33;100.00
9257;BME280;4665;51.368;6.782;2023-05-22T05:43:56;101107.56;;;16.33;100.00
9257;BME280;4665;51.368;6.782;2023-05-22T05:46:24;101108.88;;;16.37;100.00
9257;BME280;4665;51.368;6.782;2023-05-22T05:48:49;101100.97;;;16.36;100.00
9257;BME280;4665;51.368;6.782;2023-05-22T05:51:15;101112.22;;;16.39;100.00
9257;BME280;4665;51.368;6.782;2023-05-22T05:53:40;101107.50;;;16.41;100.00
9257;BME280;4665;51.368;6.782;2023-05-22T05:56:06;101111.50;;;16.46;100.00
9257;BME280;4665;51.368;6.782;2023-05-22T05:58:32;101119.72;;;16.44;100.00
9257;BME280;4665;51.368;6.782;2023-05-22T06:00:58;101118.53;;;16.47;100.00
9257;BME280;4665;51.368;6.782;2023-05-22T06:03:23;101104.97;;;16.40;100.00
9257;BME280;4665;51.368;6.782;2023-05-22T06:05:50;101126.41;;;16.48;100.00
9257;BME280;4665;51.368;6.782;2023-05-22T06:08:15;101115.84;;;16.47;100.00
9257;BME280;4665;51.368;6.782;2023-05-22T06:10:40;101121.97;;;16.55;100.00
9257;BME280;4665;51.368;6.782;2023-05-22T06:13:06;101117.88;;;16.59;100.00
9257;BME280;4665;51.368;6.782;2023-05-22T06:15:31;101128.81;;;16.73;100.00
9257;BME280;4665;51.368;6.782;2023-05-22T06:17:56;101116.78;;;16.83;100.00
9257;BME280;4665;51.368;6.782;2023-05-22T06:20:22;101124.94;;;16.90;100.00
9257;BME280;4665;51.368;6.782;2023-05-22T06:22:49;101105.53;;;16.80;100.00
9257;BME280;4665;51.368;6.782;2023-05-22T06:25:15;101119.16;;;16.93;100.00
9257;BME280;4665;51.368;6.782;2023-05-22T06:27:40;101120.38;;;16.91;100.00
9257;BME280;4665;51.368;6.782;2023-05-22T06:30:07;101119.25;;;17.00;100.00
9257;BME280;4665;51.368;6.782;2023-05-22T06:32:32;101124.91;;;17.05;100.00
9257;BME280;4665;51.368;6.782;2023-05-22T06:34:58;101138.25;;;17.13;100.00
9257;BME280;4665;51.368;6.782;2023-05-22T06:37:23;101138.06;;;17.15;100.00
9257;BME280;4665;51.368;6.782;2023-05-22T06:39:49;101136.88;;;17.17;100.00
9257;BME280;4665;51.368;6.782;2023-05-22T06:42:14;101133.59;;;17.22;100.00
9257;BME280;4665;51.368;6.782;2023-05-22T06:44:39;101133.66;;;17.29;100.00
9257;BME280;4665;51.368;6.782;2023-05-22T06:47:05;101149.13;;;17.41;100.00
9257;BME280;4665;51.368;6.782;2023-05-22T06:49:30;101145.88;;;17.46;100.00
9257;BME280;4665;51.368;6.782;2023-05-22T06:51:56;101153.06;;;17.60;100.00
9257;BME280;4665;51.368;6.782;2023-05-22T06:54:21;101152.56;;;17.72;100.00
9257;BME280;4665;51.368;6.782;2023-05-22T06:56:47;101145.03;;;17.67;100.00
9257;BME280;4665;51.368;6.782;2023-05-22T06:59:12;101147.28;;;17.63;100.00
9257;BME280;4665;51.368;6.782;2023-05-22T07:01:38;101146.69;;;17.68;100.00
9257;BME280;4665;51.368;6.782;2023-05-22T07:04:03;101141.06;;;17.63;100.00
9257;BME280;4665;51.368;6.782;2023-05-22T07:06:33;101142.69;;;17.57;100.00
9257;BME280;4665;51.368;6.782;2023-05-22T07:09:03;101145.94;;;17.53;100.00
9257;BME280;4665;51.368;6.782;2023-05-22T07:11:29;101158.63;;;17.59;100.00
9257;BME280;4665;51.368;6.782;2023-05-22T07:13:54;101160.09;;;17.61;100.00
9257;BME280;4665;51.368;6.782;2023-05-22T07:16:21;101164.31;;;17.64;100.00
9257;BME280;4665;51.368;6.782;2023-05-22T07:18:47;101154.09;;;17.59;100.00
9257;BME280;4665;51.368;6.782;2023-05-22T07:21:12;101170.75;;;17.70;100.00
9257;BME280;4665;51.368;6.782;2023-05-22T07:23:37;101154.47;;;17.56;100.00
9257;BME280;4665;51.368;6.782;2023-05-22T07:26:03;101167.16;;;17.62;100.00
9257;BME280;4665;51.368;6.782;2023-05-22T07:28:28;101156.47;;;17.48;100.00
9257;BME280;4665;51.368;6.782;2023-05-22T07:30:54;101169.97;;;17.54;100.00
9257;BME280;4665;51.368;6.782;2023-05-22T07:33:19;101171.59;;;17.49;100.00
9257;BME280;4665;51.368;6.782;2023-05-22T07:35:47;101178.19;;;17.46;100.00
9257;BME280;4665;51.368;6.782;2023-05-22T07:38:12;101188.13;;;17.45;100.00
9257;BME280;4665;51.368;6.782;2023-05-22T07:40:38;101184.53;;;17.38;100.00
9257;BME280;4665;51.368;6.782;2023-05-22T07:43:03;101182.13;;;17.29;100.00
9257;BME280;4665;51.368;6.782;2023-05-22T07:45:29;101187.88;;;17.25;100.00
9257;BME280;4665;51.368;6.782;2023-05-22T07:47:54;101182.50;;;17.25;100.00
9257;BME280;4665;51.368;6.782;2023-05-22T07:50:23;101182.75;;;17.31;100.00
9257;BME280;4665;51.368;6.782;2023-05-22T07:52:50;101190.84;;;17.31;100.00
9257;BME280;4665;51.368;6.782;2023-05-22T07:55:16;101182.63;;;17.17;100.00
9257;BME280;4665;51.368;6.782;2023-05-22T07:57:42;101198.78;;;17.17;100.00
9257;BME280;4665;51.368;6.782;2023-05-22T08:00:08;101202.13;;;17.04;100.00
9257;BME280;4665;51.368;6.782;2023-05-22T08:02:38;101199.25;;;17.06;100.00
9257;BME280;4665;51.368;6.782;2023-05-22T08:05:04;101207.59;;;17.11;100.00
9257;BME280;4665;51.368;6.782;2023-05-22T08:07:29;101201.84;;;16.99;100.00
9257;BME280;4665;51.368;6.782;2023-05-22T08:09:57;101199.25;;;17.06;100.00
9257;BME280;4665;51.368;6.782;2023-05-22T08:12:22;101205.38;;;17.00;100.00
9257;BME280;4665;51.368;6.782;2023-05-22T08:14:47;101211.78;;;16.99;100.00
9257;BME280;4665;51.368;6.782;2023-05-22T08:17:13;101212.41;;;17.01;100.00
9257;BME280;4665;51.368;6.782;2023-05-22T08:19:38;101205.00;;;17.03;100.00
9257;BME280;4665;51.368;6.782;2023-05-22T08:22:04;101210.38;;;17.03;100.00
9257;BME280;4665;51.368;6.782;2023-05-22T08:24:29;101214.75;;;17.04;100.00
9257;BME280;4665;51.368;6.782;2023-05-22T08:26:56;101200.81;;;17.00;100.00
9257;BME280;4665;51.368;6.782;2023-05-22T08:29:25;101205.91;;;17.10;100.00
9257;BME280;4665;51.368;6.782;2023-05-22T08:31:50;101196.34;;;17.08;100.00
9257;BME280;4665;51.368;6.782;2023-05-22T08:34:16;101214.28;;;17.15;100.00
9257;BME280;4665;51.368;6.782;2023-05-22T08:36:41;101218.25;;;17.19;100.00
9257;BME280;4665;51.368;6.782;2023-05-22T08:39:08;101210.00;;;17.21;100.00
9257;BME280;4665;51.368;6.782;2023-05-22T08:41:34;101213.97;;;17.25;100.00
9257;BME280;4665;51.368;6.782;2023-05-22T08:43:59;101202.75;;;17.21;100.00
9257;BME280;4665;51.368;6.782;2023-05-22T08:46:24;101204.16;;;17.17;100.00
9257;BME280;4665;51.368;6.782;2023-05-22T08:48:50;101203.13;;;17.18;100.00
9257;BME280;4665;51.368;6.782;2023-05-22T08:51:18;101200.69;;;17.23;100.00
9257;BME280;4665;51.368;6.782;2023-05-22T08:53:44;101203.78;;;17.20;100.00
9257;BME280;4665;51.368;6.782;2023-05-22T08:56:11;101198.78;;;17.17;100.00
9257;BME280;4665;51.368;6.782;2023-05-22T08:58:37;101202.84;;;17.28;100.00
9257;BME280;4665;51.368;6.782;2023-05-22T09:01:05;101197.06;;;17.31;100.00
9257;BME280;4665;51.368;6.782;2023-05-22T09:03:32;101199.56;;;17.33;100.00
9257;BME280;4665;51.368;6.782;2023-05-22T09:05:58;101202.16;;;17.41;100.00
9257;BME280;4665;51.368;6.782;2023-05-22T09:08:24;101204.66;;;17.42;100.00
9257;BME280;4665;51.368;6.782;2023-05-22T09:10:50;101205.50;;;17.43;100.00
9257;BME280;4665;51.368;6.782;2023-05-22T09:13:29;101201.78;;;17.44;100.00
9257;BME280;4665;51.368;6.782;2023-05-22T09:16:09;101202.91;;;17.35;100.00
9257;BME280;4665;51.368;6.782;2023-05-22T09:18:36;101208.47;;;17.33;100.00
9257;BME280;4665;51.368;6.782;2023-05-22T09:21:02;101207.22;;;17.29;100.00
9257;BME280;4665;51.368;6.782;2023-05-22T09:23:28;101219.06;;;17.35;100.00
9257;BME280;4665;51.368;6.782;2023-05-22T09:25:55;101213.78;;;17.27;100.00
9257;BME280;4665;51.368;6.782;2023-05-22T09:28:21;101220.09;;;17.19;100.00
9257;BME280;4665;51.368;6.782;2023-05-22T09:30:50;101233.22;;;17.07;100.00
9257;BME280;4665;51.368;6.782;2023-05-22T09:33:21;101219.94;;;17.06;100.00
9257;BME280;4665;51.368;6.782;2023-05-22T09:35:47;101225.69;;;17.02;100.00
9257;BME280;4665;51.368;6.782;2023-05-22T09:38:14;101222.53;;;17.14;100.00
9257;BME280;4665;51.368;6.782;2023-05-22T09:40:40;101234.50;;;17.11;100.00
9257;BME280;4665;51.368;6.782;2023-05-22T09:43:09;101226.25;;;17.13;100.00
9257;BME280;4665;51.368;6.782;2023-05-22T09:45:35;101228.09;;;17.12;100.00
9257;BME280;4665;51.368;6.782;2023-05-22T09:48:05;101225.31;;;17.20;100.00
9257;BME280;4665;51.368;6.782;2023-05-22T09:50:34;101228.19;;;17.19;100.00
9257;BME280;4665;51.368;6.782;2023-05-22T09:53:01;101233.66;;;17.25;100.00
9257;BME280;4665;51.368;6.782;2023-05-22T09:55:30;101238.66;;;17.29;100.00
9257;BME280;4665;51.368;6.782;2023-05-22T09:57:57;101231.69;;;17.34;100.00
9257;BME280;4665;51.368;6.782;2023-05-22T10:00:23;101230.78;;;17.27;100.00
9257;BME280;4665;51.368;6.782;2023-05-22T10:02:57;101225.59;;;17.25;100.00
9257;BME280;4665;51.368;6.782;2023-05-22T10:05:24;101222.72;;;17.27;100.00
9257;BME280;4665;51.368;6.782;2023-05-22T10:07:55;101225.59;;;17.25;100.00
9257;BME280;4665;51.368;6.782;2023-05-22T10:10:24;101226.50;;;17.33;100.00
9257;BME280;4665;51.368;6.782;2023-05-22T10:12:52;101218.53;;;17.24;100.00
9257;BME280;4665;51.368;6.782;2023-05-22T10:15:21;101227.72;;;17.30;100.00
9257;BME280;4665;51.368;6.782;2023-05-22T10:17:47;101211.84;;;17.20;100.00
9257;BME280;4665;51.368;6.782;2023-05-22T10:20:14;101207.13;;;17.22;100.00
9257;BME280;4665;51.368;6.782;2023-05-22T10:22:40;101200.13;;;17.28;100.00
9257;BME280;4665;51.368;6.782;2023-05-22T10:25:06;101200.88;;;17.37;100.00
9257;BME280;4665;51.368;6.782;2023-05-22T10:27:32;101211.88;;;17.57;100.00
9257;BME280;4665;51.368;6.782;2023-05-22T10:30:23;101222.72;;;17.63;100.00
9257;BME280;4665;51.368;6.782;2023-05-22T10:33:01;101212.72;;;17.57;100.00
9257;BME280;4665;51.368;6.782;2023-05-22T10:35:41;101208.59;;;17.61;100.00
9257;BME280;4665;51.368;6.782;2023-05-22T10:40:46;101212.00;;;17.85;100.00
9257;BME280;4665;51.368;6.782;2023-05-22T10:43:12;101199.78;;;17.89;100.00
9257;BME280;4665;51.368;6.782;2023-05-22T10:45:38;101203.66;;;18.01;100.00
9257;BME280;4665;51.368;6.782;2023-05-22T10:48:10;101194.13;;;18.05;100.00
9257;BME280;4665;51.368;6.782;2023-05-22T10:50:39;101194.91;;;18.21;100.00
9257;BME280;4665;51.368;6.782;2023-05-22T10:53:24;101194.41;;;18.39;100.00
9257;BME280;4665;51.368;6.782;2023-05-22T10:55:54;101192.78;;;18.44;100.00
9257;BME280;4665;51.368;6.782;2023-05-22T10:58:30;101187.84;;;18.48;100.00
9257;BME280;4665;51.368;6.782;2023-05-22T11:01:18;101191.84;;;18.59;100.00
9257;BME280;4665;51.368;6.782;2023-05-22T11:06:44;101180.69;;;18.97;100.00
9257;BME280;4665;51.368;6.782;2023-05-22T11:12:22;101176.97;;;19.04;100.00
9257;BME280;4665;51.368;6.782;2023-05-22T11:14:53;101179.13;;;19.16;100.00
9257;BME280;4665;51.368;6.782;2023-05-22T11:17:25;101177.47;;;19.21;100.00
9257;BME280;4665;51.368;6.782;2023-05-22T11:22:42;101166.28;;;19.38;100.00
9257;BME280;4665;51.368;6.782;2023-05-22T11:25:09;101162.59;;;19.45;100.00
9257;BME280;4665;51.368;6.782;2023-05-22T11:27:36;101153.44;;;19.46;100.00
9257;BME280;4665;51.368;6.782;2023-05-22T11:30:03;101163.63;;;19.51;100.00
9257;BME280;4665;51.368;6.782;2023-05-22T11:32:29;101162.41;;;19.60;100.00
9257;BME280;4665;51.368;6.782;2023-05-22T11:34:55;101168.31;;;19.70;100.00
9257;BME280;4665;51.368;6.782;2023-05-22T11:37:21;101156.84;;;19.82;100.00
9257;BME280;4665;51.368;6.782;2023-05-22T11:39:57;101155.22;;;19.87;100.00
9257;BME280;4665;51.368;6.782;2023-05-22T11:42:25;101148.13;;;19.93;100.00
9257;BME280;4665;51.368;6.782;2023-05-22T11:44:51;101137.31;;;19.93;100.00
9257;BME280;4665;51.368;6.782;2023-05-22T11:47:16;101142.09;;;19.91;100.00
9257;BME280;4665;51.368;6.782;2023-05-22T11:49:41;101143.56;;;19.93;100.00
9257;BME280;4665;51.368;6.782;2023-05-22T11:52:08;101148.97;;;20.00;100.00
9257;BME280;4665;51.368;6.782;2023-05-22T11:54:33;101136.50;;;20.12;100.00
9257;BME280;4665;51.368;6.782;2023-05-22T11:57:02;101140.44;;;20.16;100.00
9257;BME280;4665;51.368;6.782;2023-05-22T11:59:28;101136.69;;;20.17;100.00
9257;BME280;4665;51.368;6.782;2023-05-22T12:01:53;101146.88;;;20.29;100.00
9257;BME280;4665;51.368;6.782;2023-05-22T12:04:18;101136.88;;;20.36;100.00
9257;BME280;4665;51.368;6.782;2023-05-22T12:06:44;101139.56;;;20.49;100.00
9257;BME280;4665;51.368;6.782;2023-05-22T12:09:09;101133.28;;;20.55;100.00
9257;BME280;4665;51.368;6.782;2023-05-22T12:11:35;101121.03;;;20.66;100.00
9257;BME280;4665;51.368;6.782;2023-05-22T12:14:02;101121.66;;;20.68;100.00
9257;BME280;4665;51.368;6.782;2023-05-22T12:16:35;101116.00;;;20.63;100.00
9257;BME280;4665;51.368;6.782;2023-05-22T12:19:06;101120.59;;;20.69;100.00
9257;BME280;4665;51.368;6.782;2023-05-22T12:21:32;101119.31;;;20.72;100.00
9257;BME280;4665;51.368;6.782;2023-05-22T12:23:57;101122.22;;;20.77;100.00
9257;BME280;4665;51.368;6.782;2023-05-22T12:26:22;101114.31;;;20.82;100.00
9257;BME280;4665;51.368;6.782;2023-05-22T12:28:52;101120.28;;;20.91;100.00
9257;BME280;4665;51.368;6.782;2023-05-22T12:31:21;101108.22;;;20.93;100.00
9257;BME280;4665;51.368;6.782;2023-05-22T12:33:47;101111.13;;;20.98;100.00
9257;BME280;4665;51.368;6.782;2023-05-22T12:36:12;101111.09;;;21.05;100.00
9257;BME280;4665;51.368;6.782;2023-05-22T12:38:39;101108.94;;;21.14;100.00
9257;BME280;4665;51.368;6.782;2023-05-22T12:41:04;101111.84;;;21.19;100.00
9257;BME280;4665;51.368;6.782;2023-05-22T12:43:30;101112.19;;;21.29;100.00
9257;BME280;4665;51.368;6.782;2023-05-22T12:45:55;101100.38;;;21.23;100.00
9257;BME280;4665;51.368;6.782;2023-05-22T12:48:21;101101.34;;;21.29;100.00
9257;BME280;4665;51.368;6.782;2023-05-22T12:50:47;101098.59;;;21.36;100.00
9257;BME280;4665;51.368;6.782;2023-05-22T12:53:13;101102.50;;;21.47;100.00
9257;BME280;4665;51.368;6.782;2023-05-22T12:55:39;101089.22;;;21.38;100.00
9257;BME280;4665;51.368;6.782;2023-05-22T12:58:04;101094.22;;;21.41;100.00
9257;BME280;4665;51.368;6.782;2023-05-22T13:00:30;101096.84;;;21.55;100.00
9257;BME280;4665;51.368;6.782;2023-05-22T13:02:56;101097.91;;;21.54;100.00
9257;BME280;4665;51.368;6.782;2023-05-22T13:05:21;101091.66;;;21.47;100.00
9257;BME280;4665;51.368;6.782;2023-05-22T13:07:47;101089.31;;;21.57;100.00
9257;BME280;4665;51.368;6.782;2023-05-22T13:10:12;101075.97;;;21.55;100.00
9257;BME280;4665;51.368;6.782;2023-05-22T13:12:38;101090.25;;;21.69;100.00
9257;BME280;4665;51.368;6.782;2023-05-22T13:15:11;101082.69;;;21.78;100.00
9257;BME280;4665;51.368;6.782;2023-05-22T13:20:05;101086.53;;;22.14;100.00
9257;BME280;4665;51.368;6.782;2023-05-22T13:22:31;101082.38;;;22.11;100.00